createdAt,value
2023-01-29T00:00:12.662Z,27.05
2023-01-29T00:02:39.902Z,30.23
2023-01-29T00:05:25.829Z,32.03
2023-01-29T00:07:54.822Z,38.83
2023-01-29T00:10:22.291Z,30.58
2023-01-29T00:12:49.642Z,46.30
2023-01-29T00:15:17.559Z,30.75
2023-01-29T00:17:45.020Z,42.63
2023-01-29T00:20:12.704Z,47.63
2023-01-29T00:22:40.445Z,41.72
2023-01-29T00:25:08.398Z,44.83
2023-01-29T00:27:35.675Z,42.00
2023-01-29T00:30:12.792Z,38.10
2023-01-29T00:32:40.749Z,36.00
2023-01-29T00:35:09.406Z,45.55
2023-01-29T00:37:36.685Z,43.42
2023-01-29T00:40:05.414Z,36.40
2023-01-29T00:42:58.852Z,57.45
2023-01-29T00:45:26.099Z,46.72
2023-01-29T00:47:53.398Z,48.35
2023-01-29T00:50:21.661Z,38.25
2023-01-29T00:52:52.790Z,34.00
2023-01-29T00:55:20.520Z,36.38
2023-01-29T00:57:48.167Z,34.95
2023-01-29T01:00:18.406Z,44.95
2023-01-29T01:03:04.882Z,53.25
2023-01-29T01:05:32.422Z,40.38
2023-01-29T01:08:00.194Z,37.72
2023-01-29T01:10:31.233Z,40.08
2023-01-29T01:13:04.215Z,39.10
2023-01-29T01:15:35.470Z,42.38
2023-01-29T01:18:04.593Z,57.22
2023-01-29T01:20:35.199Z,48.40
2023-01-29T01:23:03.953Z,42.83
2023-01-29T01:25:31.457Z,39.63
2023-01-29T01:30:27.266Z,41.53
2023-01-29T01:32:54.565Z,39.90
2023-01-29T01:35:21.850Z,42.65
2023-01-29T01:37:50.106Z,42.80
2023-01-29T01:40:23.464Z,37.03
2023-01-29T01:42:54.501Z,49.88
2023-01-29T01:45:31.461Z,44.45
2023-01-29T01:48:09.105Z,47.53
2023-01-29T01:50:41.579Z,37.70
2023-01-29T01:53:18.992Z,37.65
2023-01-29T01:55:52.612Z,43.00
2023-01-29T01:58:29.945Z,43.85
2023-01-29T02:00:57.883Z,36.30
2023-01-29T02:03:49.491Z,43.65
2023-01-29T02:06:35.852Z,39.72
2023-01-29T02:09:27.430Z,42.92
2023-01-29T02:11:55.484Z,41.35
2023-01-29T02:14:23.226Z,42.83
2023-01-29T02:16:50.756Z,53.40
2023-01-29T02:19:47.306Z,43.25
2023-01-29T02:22:28.302Z,58.78
2023-01-29T02:25:34.631Z,45.88
2023-01-29T02:28:32.388Z,48.38
2023-01-29T02:31:10.206Z,41.92
2023-01-29T02:33:55.998Z,42.75
2023-01-29T02:36:51.295Z,48.42
2023-01-29T02:39:41.682Z,60.97
2023-01-29T02:42:31.157Z,47.00
2023-01-29T02:45:12.740Z,50.70
2023-01-29T02:47:42.888Z,33.55
2023-01-29T02:50:17.277Z,56.53
2023-01-29T02:52:59.793Z,38.28
2023-01-29T02:55:56.592Z,54.75
2023-01-29T02:58:36.173Z,39.67
2023-01-29T03:01:35.807Z,50.28
2023-01-29T03:04:12.142Z,42.80
2023-01-29T03:06:45.036Z,36.60
2023-01-29T03:09:35.932Z,48.55
2023-01-29T03:12:29.049Z,55.30
2023-01-29T03:15:13.141Z,40.78
2023-01-29T03:17:55.585Z,52.17
2023-01-29T03:20:48.203Z,56.45
2023-01-29T03:23:27.078Z,55.08
2023-01-29T03:26:17.971Z,48.05
2023-01-29T03:29:06.462Z,54.67
2023-01-29T03:31:55.635Z,40.25
2023-01-29T03:34:38.859Z,41.95
2023-01-29T03:37:15.343Z,37.22
2023-01-29T03:39:42.841Z,49.03
2023-01-29T03:42:30.835Z,45.50
2023-01-29T03:45:26.136Z,47.67
2023-01-29T03:48:14.987Z,50.47
2023-01-29T03:51:05.654Z,45.05
2023-01-29T03:53:43.879Z,49.83
2023-01-29T03:56:45.504Z,47.22
2023-01-29T03:59:18.854Z,62.80
2023-01-29T04:02:34.549Z,52.25
2023-01-29T04:05:14.937Z,45.72
2023-01-29T04:08:02.608Z,52.33
2023-01-29T04:10:31.307Z,43.30
2023-01-29T04:13:09.157Z,44.28
2023-01-29T04:15:44.006Z,42.72
2023-01-29T04:18:11.795Z,52.83
2023-01-29T04:21:01.738Z,52.58
2023-01-29T04:23:29.616Z,45.80
2023-01-29T04:25:59.769Z,42.65
2023-01-29T04:28:53.914Z,44.28
2023-01-29T04:31:25.044Z,43.88
2023-01-29T04:34:10.471Z,40.97
2023-01-29T04:36:54.258Z,50.30
2023-01-29T04:39:27.527Z,53.17
2023-01-29T04:42:03.842Z,50.38
2023-01-29T04:44:44.685Z,46.05
2023-01-29T04:47:36.756Z,51.30
2023-01-29T04:50:48.381Z,41.92
2023-01-29T04:53:40.890Z,46.00
2023-01-29T04:56:20.711Z,47.70
2023-01-29T04:58:55.439Z,44.22
2023-01-29T05:01:25.829Z,42.90
2023-01-29T05:03:55.209Z,45.20
2023-01-29T05:06:24.767Z,40.67
2023-01-29T05:08:53.669Z,42.97
2023-01-29T05:11:21.527Z,42.95
2023-01-29T05:13:49.463Z,48.47
2023-01-29T05:16:25.822Z,37.42
2023-01-29T05:18:54.112Z,51.83
2023-01-29T05:21:23.335Z,46.63
2023-01-29T05:24:10.295Z,45.30
2023-01-29T05:26:56.445Z,45.63
2023-01-29T05:29:23.816Z,54.88
2023-01-29T05:31:51.045Z,37.95
2023-01-29T05:34:18.386Z,46.25
2023-01-29T05:36:45.870Z,40.92
2023-01-29T05:39:13.355Z,44.25
2023-01-29T05:41:40.714Z,46.25
2023-01-29T05:44:09.457Z,36.95
2023-01-29T05:46:37.847Z,47.60
2023-01-29T05:49:05.722Z,40.45
2023-01-29T05:51:32.959Z,45.17
2023-01-29T05:54:00.252Z,49.38
2023-01-29T05:56:27.611Z,39.10
2023-01-29T05:58:55.457Z,37.92
2023-01-29T06:01:25.147Z,45.20
2023-01-29T06:03:52.449Z,37.58
2023-01-29T06:06:19.838Z,41.95
2023-01-29T06:08:47.165Z,46.50
2023-01-29T06:11:16.369Z,43.20
2023-01-29T06:13:43.991Z,48.30
2023-01-29T06:16:13.394Z,40.47
2023-01-29T06:18:41.601Z,38.83
2023-01-29T06:21:12.435Z,37.22
2023-01-29T06:23:40.588Z,42.95
2023-01-29T06:26:11.448Z,33.67
2023-01-29T06:28:38.906Z,37.95
2023-01-29T06:31:37.462Z,25.52
2023-01-29T06:33:55.385Z,30.15
2023-01-29T06:36:22.626Z,24.48
2023-01-29T06:38:49.914Z,32.90
2023-01-29T06:41:19.674Z,33.05
2023-01-29T06:43:47.779Z,29.45
2023-01-29T06:46:15.037Z,29.67
2023-01-29T06:48:42.669Z,28.13
2023-01-29T06:51:11.059Z,24.42
2023-01-29T06:53:39.819Z,21.65
2023-01-29T06:56:07.808Z,26.10
2023-01-29T06:58:39.041Z,27.20
2023-01-29T07:01:09.040Z,22.30
2023-01-29T07:03:36.967Z,29.15
2023-01-29T07:06:05.217Z,29.35
2023-01-29T07:08:35.746Z,29.98
2023-01-29T07:11:04.591Z,23.60
2023-01-29T07:13:31.902Z,29.70
2023-01-29T07:16:03.747Z,28.75
2023-01-29T07:18:31.570Z,22.30
2023-01-29T07:20:58.993Z,18.48
2023-01-29T07:23:26.221Z,18.30
2023-01-29T07:25:53.515Z,18.38
2023-01-29T07:28:20.844Z,21.90
2023-01-29T07:30:48.159Z,12.43
2023-01-29T07:33:15.561Z,21.75
2023-01-29T07:35:44.287Z,17.48
2023-01-29T07:38:11.826Z,20.15
2023-01-29T07:40:39.865Z,24.48
2023-01-29T07:43:09.303Z,16.40
2023-01-29T07:45:38.709Z,13.15
2023-01-29T07:48:07.302Z,17.65
2023-01-29T07:50:35.600Z,18.02
2023-01-29T07:53:03.195Z,19.35
2023-01-29T07:55:31.492Z,13.18
2023-01-29T07:58:01.536Z,16.95
2023-01-29T08:00:30.292Z,14.93
2023-01-29T08:03:10.781Z,16.75
2023-01-29T08:05:38.198Z,13.30
2023-01-29T08:08:07.679Z,14.48
2023-01-29T08:10:36.664Z,17.45
2023-01-29T08:13:05.306Z,13.90
2023-01-29T08:15:33.143Z,14.57
2023-01-29T08:18:01.967Z,20.15
2023-01-29T08:20:29.658Z,17.88
2023-01-29T08:23:05.289Z,23.80
2023-01-29T08:25:33.721Z,16.48
2023-01-29T08:28:01.658Z,20.50
2023-01-29T08:30:31.943Z,14.00
2023-01-29T08:32:59.375Z,11.18
2023-01-29T08:35:27.109Z,25.65
2023-01-29T08:37:59.681Z,15.77
2023-01-29T08:40:32.511Z,13.60
2023-01-29T08:43:07.672Z,20.83
2023-01-29T08:45:38.298Z,12.82
2023-01-29T08:48:05.795Z,19.92
2023-01-29T08:50:34.927Z,14.32
2023-01-29T08:53:07.623Z,23.27
2023-01-29T08:55:39.542Z,13.32
2023-01-29T08:58:08.901Z,23.60
2023-01-29T09:00:36.543Z,22.27
2023-01-29T09:03:03.940Z,20.50
2023-01-29T09:05:31.226Z,24.08
2023-01-29T09:07:58.913Z,19.45
2023-01-29T09:10:26.786Z,24.63
2023-01-29T09:12:54.098Z,13.05
2023-01-29T09:15:21.748Z,19.65
2023-01-29T09:17:51.762Z,19.48
2023-01-29T09:20:19.889Z,16.77
2023-01-29T09:22:47.810Z,20.55
2023-01-29T09:25:15.621Z,16.58
2023-01-29T09:27:43.063Z,15.10
2023-01-29T09:30:11.142Z,17.65
2023-01-29T09:32:54.676Z,17.40
2023-01-29T09:35:23.357Z,16.30
2023-01-29T09:37:51.619Z,18.75
2023-01-29T09:40:41.818Z,18.90
2023-01-29T09:43:18.339Z,16.98
2023-01-29T09:46:02.997Z,24.63
2023-01-29T09:48:32.639Z,16.15
2023-01-29T09:51:04.974Z,11.55
2023-01-29T09:53:45.968Z,17.95
2023-01-29T09:56:18.873Z,19.65
2023-01-29T09:58:46.504Z,20.30
2023-01-29T10:01:53.369Z,20.58
2023-01-29T10:04:39.466Z,18.05
2023-01-29T10:07:31.296Z,11.52
2023-01-29T10:10:12.119Z,26.75
2023-01-29T10:12:54.491Z,16.52
2023-01-29T10:15:40.473Z,24.60
2023-01-29T10:18:32.439Z,17.67
2023-01-29T10:21:19.931Z,23.88
2023-01-29T10:24:15.095Z,17.67
2023-01-29T10:26:42.517Z,20.88
2023-01-29T10:29:18.249Z,17.25
2023-01-29T10:31:49.535Z,17.48
2023-01-29T10:34:36.526Z,18.00
2023-01-29T10:37:18.469Z,14.95
2023-01-29T10:39:46.218Z,24.65
2023-01-29T10:42:13.471Z,22.85
2023-01-29T10:45:08.055Z,22.45
2023-01-29T10:48:07.622Z,14.80
2023-01-29T10:50:44.037Z,16.15
2023-01-29T10:53:24.885Z,28.60
2023-01-29T10:56:21.899Z,18.08
2023-01-29T10:58:56.769Z,15.50
2023-01-29T11:01:24.291Z,23.52
2023-01-29T11:04:13.009Z,21.15
2023-01-29T11:06:40.309Z,16.42
2023-01-29T11:12:21.698Z,27.02
2023-01-29T11:15:14.330Z,12.23
2023-01-29T11:18:20.940Z,22.55
2023-01-29T11:21:01.681Z,23.63
2023-01-29T11:23:32.246Z,26.55
2023-01-29T11:26:00.837Z,21.63
2023-01-29T11:28:45.551Z,19.33
2023-01-29T11:31:35.640Z,26.88
2023-01-29T11:34:06.336Z,24.65
2023-01-29T11:36:38.665Z,21.27
2023-01-29T11:39:15.384Z,20.85
2023-01-29T11:41:44.514Z,19.35
2023-01-29T11:44:45.226Z,20.90
2023-01-29T11:47:20.159Z,19.58
2023-01-29T11:49:52.016Z,23.27
2023-01-29T11:52:23.769Z,21.45
2023-01-29T11:55:02.213Z,15.10
2023-01-29T11:57:38.777Z,18.25
2023-01-29T12:00:25.973Z,18.35
2023-01-29T12:03:06.655Z,19.73
2023-01-29T12:05:34.275Z,17.40
2023-01-29T12:08:02.568Z,14.32
2023-01-29T12:10:37.494Z,11.63
2023-01-29T12:13:10.916Z,13.40
2023-01-29T12:15:40.344Z,12.73
2023-01-29T12:18:30.487Z,9.38
2023-01-29T12:21:05.633Z,15.43
2023-01-29T12:24:02.264Z,9.48
2023-01-29T12:26:37.521Z,12.32
2023-01-29T12:29:15.489Z,10.15
2023-01-29T12:32:23.976Z,15.07
2023-01-29T12:35:01.634Z,14.73
2023-01-29T12:38:01.015Z,11.73
2023-01-29T12:40:47.147Z,12.10
2023-01-29T12:43:22.308Z,16.63
2023-01-29T12:45:58.001Z,16.20
2023-01-29T12:48:34.683Z,18.40
2023-01-29T12:51:14.201Z,17.60
2023-01-29T12:54:19.967Z,7.85
2023-01-29T12:56:51.555Z,10.15
2023-01-29T12:59:21.556Z,4.65
2023-01-29T13:01:59.829Z,9.90
2023-01-29T13:04:37.952Z,7.15
2023-01-29T13:07:18.854Z,12.15
2023-01-29T13:09:52.112Z,8.98
2023-01-29T13:12:22.629Z,12.88
2023-01-29T13:14:57.723Z,11.52
2023-01-29T13:17:54.704Z,12.32
2023-01-29T13:20:29.134Z,6.63
2023-01-29T13:23:05.948Z,10.82
2023-01-29T13:25:33.214Z,19.30
2023-01-29T13:28:00.775Z,9.85
2023-01-29T13:30:33.514Z,8.32
2023-01-29T13:33:10.699Z,10.95
2023-01-29T13:35:42.103Z,9.15
2023-01-29T13:38:38.896Z,5.40
2023-01-29T13:41:10.313Z,14.00
2023-01-29T13:43:40.704Z,8.93
2023-01-29T13:46:19.132Z,7.60
2023-01-29T13:48:49.650Z,12.15
2023-01-29T13:51:22.746Z,6.57
2023-01-29T13:53:57.842Z,5.38
2023-01-29T13:56:32.755Z,12.48
2023-01-29T13:59:01.000Z,9.98
2023-01-29T14:01:46.914Z,24.80
2023-01-29T14:04:25.545Z,12.55
2023-01-29T14:06:57.473Z,4.32
2023-01-29T14:09:47.948Z,6.72
2023-01-29T14:12:21.339Z,10.50
2023-01-29T14:14:48.674Z,7.05
2023-01-29T14:17:18.379Z,2.97
2023-01-29T14:20:01.576Z,5.22
2023-01-29T14:22:30.661Z,3.60
2023-01-29T14:25:02.313Z,5.85
2023-01-29T14:27:30.211Z,4.40
2023-01-29T14:30:10.143Z,9.25
2023-01-29T14:32:40.475Z,6.60
2023-01-29T14:35:22.415Z,6.15
2023-01-29T14:37:56.461Z,5.72
2023-01-29T14:40:27.132Z,7.15
2023-01-29T14:42:57.490Z,5.10
2023-01-29T14:45:34.766Z,6.60
2023-01-29T14:48:11.150Z,13.20
2023-01-29T14:50:50.315Z,10.20
2023-01-29T14:53:50.045Z,7.47
2023-01-29T14:56:40.774Z,14.73
2023-01-29T14:59:25.000Z,5.43
2023-01-29T15:01:55.864Z,5.82
2023-01-29T15:04:28.676Z,14.32
2023-01-29T15:07:18.298Z,8.50
2023-01-29T15:09:55.471Z,6.35
2023-01-29T15:12:25.713Z,5.25
2023-01-29T15:15:26.131Z,5.13
2023-01-29T15:18:19.316Z,2.78
2023-01-29T15:20:46.999Z,4.85
2023-01-29T15:23:34.526Z,7.32
2023-01-29T15:26:04.569Z,5.88
2023-01-29T15:28:34.737Z,6.75
2023-01-29T15:31:04.714Z,4.97
2023-01-29T15:33:33.675Z,5.00
2023-01-29T15:36:07.389Z,5.95
2023-01-29T15:38:35.931Z,9.55
2023-01-29T15:41:17.095Z,4.43
2023-01-29T15:43:49.969Z,7.60
2023-01-29T15:46:30.058Z,5.40
2023-01-29T15:49:00.776Z,3.75
2023-01-29T15:51:29.011Z,14.43
2023-01-29T15:54:11.424Z,10.32
2023-01-29T15:56:43.345Z,6.03
2023-01-29T15:59:18.932Z,6.03
2023-01-29T16:01:46.661Z,3.85
2023-01-29T16:04:20.855Z,5.05
2023-01-29T16:06:49.845Z,11.48
2023-01-29T16:09:20.838Z,7.47
2023-01-29T16:11:50.439Z,5.50
2023-01-29T16:14:23.043Z,2.50
2023-01-29T16:16:50.573Z,7.18
2023-01-29T16:19:23.692Z,8.63
2023-01-29T16:21:57.679Z,6.07
2023-01-29T16:24:25.877Z,3.95
2023-01-29T16:27:00.110Z,3.92
2023-01-29T16:29:32.675Z,9.70
2023-01-29T16:32:02.604Z,8.95
2023-01-29T16:34:37.665Z,13.25
2023-01-29T16:37:08.366Z,6.20
2023-01-29T16:39:43.889Z,8.00
2023-01-29T16:42:17.391Z,14.85
2023-01-29T16:44:52.414Z,6.88
2023-01-29T16:47:31.697Z,10.35
2023-01-29T16:50:00.968Z,7.80
2023-01-29T16:52:31.539Z,9.48
2023-01-29T16:55:02.123Z,6.85
2023-01-29T16:57:32.991Z,9.38
2023-01-29T17:00:03.236Z,9.50
2023-01-29T17:02:38.389Z,7.35
2023-01-29T17:05:09.659Z,8.90
2023-01-29T17:07:37.935Z,7.95
2023-01-29T17:10:07.151Z,5.68
2023-01-29T17:12:36.253Z,6.20
2023-01-29T17:15:26.077Z,7.50
2023-01-29T17:17:53.405Z,5.38
2023-01-29T17:20:20.907Z,9.27
2023-01-29T17:22:48.145Z,5.38
2023-01-29T17:25:17.091Z,8.15
2023-01-29T17:27:51.388Z,10.90
2023-01-29T17:30:22.406Z,4.82
2023-01-29T17:32:49.803Z,12.77
2023-01-29T17:35:17.765Z,3.92
2023-01-29T17:37:45.329Z,11.77
2023-01-29T17:40:39.298Z,3.50
2023-01-29T17:43:07.531Z,4.68
2023-01-29T17:45:34.839Z,7.47
2023-01-29T17:48:02.199Z,3.35
2023-01-29T17:50:32.000Z,9.07
2023-01-29T17:52:59.475Z,6.63
2023-01-29T17:55:26.768Z,4.45
2023-01-29T17:57:54.020Z,5.57
2023-01-29T18:00:23.809Z,3.78
2023-01-29T18:02:51.689Z,5.97
2023-01-29T18:05:19.438Z,5.68
2023-01-29T18:07:47.844Z,5.90
2023-01-29T18:10:20.955Z,6.00
2023-01-29T18:12:48.366Z,4.65
2023-01-29T18:15:16.242Z,7.82
2023-01-29T18:17:44.107Z,5.45
2023-01-29T18:20:23.401Z,3.95
2023-01-29T18:22:50.989Z,8.52
2023-01-29T18:25:19.100Z,4.28
2023-01-29T18:27:46.771Z,4.43
2023-01-29T18:30:14.786Z,4.47
2023-01-29T18:32:42.034Z,4.47
2023-01-29T18:35:09.763Z,3.08
2023-01-29T18:37:37.070Z,4.90
2023-01-29T18:40:05.806Z,4.38
2023-01-29T18:42:33.597Z,6.97
2023-01-29T18:45:00.985Z,6.03
2023-01-29T18:47:28.227Z,1.65
2023-01-29T18:49:55.493Z,4.03
2023-01-29T18:52:22.779Z,6.05
2023-01-29T18:54:50.068Z,5.47
2023-01-29T18:58:27.339Z,3.28
2023-01-29T19:00:05.252Z,1.98
2023-01-29T19:02:32.842Z,6.65
2023-01-29T19:05:00.185Z,24.10
2023-01-29T19:07:27.596Z,15.95
2023-01-29T19:09:54.877Z,14.25
2023-01-29T19:12:22.931Z,11.82
2023-01-29T19:14:50.249Z,4.55
2023-01-29T19:17:17.577Z,8.10
2023-01-29T19:19:44.837Z,7.75
2023-01-29T19:22:12.107Z,7.80
2023-01-29T19:24:39.371Z,8.75
2023-01-29T19:27:06.700Z,4.57
2023-01-29T19:29:34.303Z,5.13
2023-01-29T19:32:01.813Z,5.72
2023-01-29T19:34:29.134Z,10.48
2023-01-29T19:36:56.393Z,3.78
2023-01-29T19:39:23.791Z,5.05
2023-01-29T19:41:51.155Z,2.67
2023-01-29T19:44:18.376Z,7.05
2023-01-29T19:46:46.815Z,5.28
2023-01-29T19:49:14.190Z,4.30
2023-01-29T19:51:41.552Z,7.35
2023-01-29T19:54:09.573Z,5.93
2023-01-29T19:56:37.187Z,6.05
2023-01-29T19:59:07.170Z,5.18
2023-01-29T20:01:34.713Z,5.53
2023-01-29T20:04:02.075Z,12.40
2023-01-29T20:06:32.918Z,12.15
2023-01-29T20:09:02.823Z,12.40
2023-01-29T20:11:30.805Z,7.18
2023-01-29T20:13:58.754Z,5.57
2023-01-29T20:16:26.689Z,9.88
2023-01-29T20:18:54.039Z,5.05
2023-01-29T20:21:22.085Z,5.72
2023-01-29T20:23:50.978Z,4.82
2023-01-29T20:26:19.693Z,5.78
2023-01-29T20:28:47.853Z,3.17
2023-01-29T20:31:16.225Z,6.30
2023-01-29T20:33:44.349Z,6.57
2023-01-29T20:36:12.811Z,12.93
2023-01-29T20:38:40.254Z,5.20
2023-01-29T20:41:19.201Z,2.50
2023-01-29T20:43:47.378Z,4.82
2023-01-29T20:46:14.927Z,7.13
2023-01-29T20:48:42.358Z,4.05
2023-01-29T20:51:16.166Z,6.70
2023-01-29T20:53:48.087Z,4.40
2023-01-29T20:56:17.270Z,7.10
2023-01-29T20:58:46.577Z,14.50
2023-01-29T21:01:16.686Z,8.25
2023-01-29T21:03:44.220Z,4.60
2023-01-29T21:06:12.144Z,3.60
2023-01-29T21:08:40.421Z,2.67
2023-01-29T21:11:09.301Z,8.23
2023-01-29T21:13:37.261Z,8.07
2023-01-29T21:16:04.923Z,4.85
2023-01-29T21:18:32.316Z,6.57
2023-01-29T21:20:59.687Z,5.72
2023-01-29T21:23:27.022Z,8.60
2023-01-29T21:25:54.392Z,5.03
2023-01-29T21:28:21.798Z,9.15
2023-01-29T21:30:49.175Z,5.30
2023-01-29T21:33:16.865Z,3.50
2023-01-29T21:35:44.061Z,6.85
2023-01-29T21:38:11.311Z,3.22
2023-01-29T21:40:38.567Z,9.23
2023-01-29T21:43:11.932Z,7.60
2023-01-29T21:45:40.215Z,4.80
2023-01-29T21:48:09.631Z,6.18
2023-01-29T21:50:37.017Z,9.25
2023-01-29T21:53:04.421Z,7.93
2023-01-29T21:55:32.706Z,10.27
2023-01-29T21:58:00.392Z,7.80
2023-01-29T22:00:28.029Z,13.43
2023-01-29T22:02:55.375Z,10.48
2023-01-29T22:05:23.171Z,8.57
2023-01-29T22:07:50.750Z,13.00
2023-01-29T22:10:19.761Z,6.65
2023-01-29T22:12:48.231Z,9.45
2023-01-29T22:15:15.639Z,11.50
2023-01-29T22:17:43.835Z,18.50
2023-01-29T22:20:13.066Z,8.52
2023-01-29T22:22:40.493Z,18.40
2023-01-29T22:25:08.360Z,11.98
2023-01-29T22:27:35.652Z,8.15
2023-01-29T22:30:03.754Z,11.88
2023-01-29T22:32:32.711Z,10.18
2023-01-29T22:35:00.101Z,7.75
2023-01-29T22:37:27.525Z,7.22
2023-01-29T22:39:54.830Z,8.23
2023-01-29T22:42:22.091Z,7.25
2023-01-29T22:44:49.801Z,10.60
2023-01-29T22:47:16.997Z,13.07
2023-01-29T22:49:45.682Z,12.35
2023-01-29T22:52:13.710Z,7.47
2023-01-29T22:54:42.995Z,11.65
2023-01-29T22:57:12.343Z,13.95
2023-01-29T22:59:40.064Z,6.25
2023-01-29T23:02:08.056Z,7.78
2023-01-29T23:04:35.490Z,3.85
2023-01-29T23:07:03.084Z,6.60
2023-01-29T23:09:30.470Z,8.18
2023-01-29T23:11:57.823Z,9.80
2023-01-29T23:14:25.085Z,7.32
2023-01-29T23:16:52.372Z,10.73
2023-01-29T23:19:19.756Z,12.32
2023-01-29T23:21:47.152Z,5.28
2023-01-29T23:24:14.401Z,19.70
2023-01-29T23:27:00.170Z,8.55
2023-01-29T23:29:27.417Z,9.23
2023-01-29T23:31:54.662Z,12.57
2023-01-29T23:34:21.972Z,10.02
2023-01-29T23:36:49.269Z,5.40
2023-01-29T23:39:16.747Z,12.77
2023-01-29T23:41:44.664Z,14.60
2023-01-29T23:44:11.793Z,33.42
2023-01-29T23:46:39.048Z,9.98
2023-01-29T23:49:06.693Z,13.75
2023-01-29T23:51:34.239Z,11.10
2023-01-29T23:54:01.475Z,12.35
2023-01-29T23:56:28.770Z,9.13
2023-01-29T23:58:57.086Z,15.10
